sensor_id;sensor_type;location;lat;lon;timestamp;temperature;humidity
2409;DHT22;8463;48.094;7.970;2023-03-01T00:02:01;-0.80;40.70
2409;DHT22;8463;48.094;7.970;2023-03-01T00:04:27;-0.80;41.10
2409;DHT22;8463;48.094;7.970;2023-03-01T00:06:55;-0.80;40.20
2409;DHT22;8463;48.094;7.970;2023-03-01T00:09:21;-0.70;40.00
2409;DHT22;8463;48.094;7.970;2023-03-01T00:11:47;-0.70;39.80
2409;DHT22;8463;48.094;7.970;2023-03-01T00:14:13;-0.70;40.00
2409;DHT22;8463;48.094;7.970;2023-03-01T00:16:41;-0.70;40.00
2409;DHT22;8463;48.094;7.970;2023-03-01T00:19:09;-0.70;39.50
2409;DHT22;8463;48.094;7.970;2023-03-01T00:21:36;-0.70;39.70
2409;DHT22;8463;48.094;7.970;2023-03-01T00:24:04;-0.70;39.10
2409;DHT22;8463;48.094;7.970;2023-03-01T00:26:30;-0.70;38.20
2409;DHT22;8463;48.094;7.970;2023-03-01T00:28:57;-0.80;38.60
2409;DHT22;8463;48.094;7.970;2023-03-01T00:31:26;-0.90;39.10
2409;DHT22;8463;48.094;7.970;2023-03-01T00:33:53;-0.90;39.60
2409;DHT22;8463;48.094;7.970;2023-03-01T00:36:23;-0.90;39.00
2409;DHT22;8463;48.094;7.970;2023-03-01T00:38:49;-1.00;39.70
2409;DHT22;8463;48.094;7.970;2023-03-01T00:41:16;-1.00;40.20
2409;DHT22;8463;48.094;7.970;2023-03-01T00:43:42;-1.00;40.60
2409;DHT22;8463;48.094;7.970;2023-03-01T00:46:12;-1.00;41.20
2409;DHT22;8463;48.094;7.970;2023-03-01T00:48:38;-1.00;41.10
2409;DHT22;8463;48.094;7.970;2023-03-01T00:51:09;-1.00;41.10
2409;DHT22;8463;48.094;7.970;2023-03-01T00:53:36;-0.90;40.60
2409;DHT22;8463;48.094;7.970;2023-03-01T00:56:03;-0.90;40.00
2409;DHT22;8463;48.094;7.970;2023-03-01T00:58:29;-0.90;39.60
2409;DHT22;8463;48.094;7.970;2023-03-01T01:00:55;-0.80;39.40
2409;DHT22;8463;48.094;7.970;2023-03-01T01:03:21;-0.90;39.30
2409;DHT22;8463;48.094;7.970;2023-03-01T01:05:50;-0.90;39.70
2409;DHT22;8463;48.094;7.970;2023-03-01T01:08:16;-1.00;40.00
2409;DHT22;8463;48.094;7.970;2023-03-01T01:10:44;-1.00;40.30
2409;DHT22;8463;48.094;7.970;2023-03-01T01:13:10;-0.90;40.50
2409;DHT22;8463;48.094;7.970;2023-03-01T01:15:35;-0.90;40.10
2409;DHT22;8463;48.094;7.970;2023-03-01T01:18:04;-0.90;40.10
2409;DHT22;8463;48.094;7.970;2023-03-01T01:20:29;-0.90;39.60
2409;DHT22;8463;48.094;7.970;2023-03-01T01:22:55;-0.90;40.00
2409;DHT22;8463;48.094;7.970;2023-03-01T01:25:21;-1.00;39.60
2409;DHT22;8463;48.094;7.970;2023-03-01T01:27:46;-1.00;39.60
2409;DHT22;8463;48.094;7.970;2023-03-01T01:30:12;-1.00;39.50
2409;DHT22;8463;48.094;7.970;2023-03-01T01:32:38;-1.00;39.50
2409;DHT22;8463;48.094;7.970;2023-03-01T01:35:04;-1.00;38.90
2409;DHT22;8463;48.094;7.970;2023-03-01T01:37:30;-1.10;38.30
2409;DHT22;8463;48.094;7.970;2023-03-01T01:39:59;-1.10;39.00
2409;DHT22;8463;48.094;7.970;2023-03-01T01:42:26;-1.20;39.30
2409;DHT22;8463;48.094;7.970;2023-03-01T01:45:44;-1.10;39.80
2409;DHT22;8463;48.094;7.970;2023-03-01T01:48:07;-1.10;39.50
2409;DHT22;8463;48.094;7.970;2023-03-01T01:50:39;-1.00;39.40
2409;DHT22;8463;48.094;7.970;2023-03-01T01:53:09;-1.10;38.60
2409;DHT22;8463;48.094;7.970;2023-03-01T01:55:37;-1.20;38.40
2409;DHT22;8463;48.094;7.970;2023-03-01T01:58:09;-1.20;39.40
2409;DHT22;8463;48.094;7.970;2023-03-01T02:00:37;-1.20;39.60
2409;DHT22;8463;48.094;7.970;2023-03-01T02:03:17;-1.20;39.40
2409;DHT22;8463;48.094;7.970;2023-03-01T02:05:51;-1.30;40.00
2409;DHT22;8463;48.094;7.970;2023-03-01T02:08:19;-1.20;40.40
2409;DHT22;8463;48.094;7.970;2023-03-01T02:10:46;-1.30;40.40
2409;DHT22;8463;48.094;7.970;2023-03-01T02:13:13;-1.30;40.90
2409;DHT22;8463;48.094;7.970;2023-03-01T02:15:40;-1.30;40.40
2409;DHT22;8463;48.094;7.970;2023-03-01T02:18:07;-1.30;40.70
2409;DHT22;8463;48.094;7.970;2023-03-01T02:20:44;-1.30;41.10
2409;DHT22;8463;48.094;7.970;2023-03-01T02:23:13;-1.20;41.10
2409;DHT22;8463;48.094;7.970;2023-03-01T02:26:19;-1.30;40.50
2409;DHT22;8463;48.094;7.970;2023-03-01T02:28:46;-1.30;40.20
2409;DHT22;8463;48.094;7.970;2023-03-01T02:31:18;-1.30;40.20
2409;DHT22;8463;48.094;7.970;2023-03-01T02:34:03;-1.40;40.00
2409;DHT22;8463;48.094;7.970;2023-03-01T02:36:37;-1.40;41.30
2409;DHT22;8463;48.094;7.970;2023-03-01T02:39:05;-1.40;41.60
2409;DHT22;8463;48.094;7.970;2023-03-01T02:41:35;-1.40;41.70
2409;DHT22;8463;48.094;7.970;2023-03-01T02:44:02;-1.40;41.30
2409;DHT22;8463;48.094;7.970;2023-03-01T02:46:28;-1.40;41.00
2409;DHT22;8463;48.094;7.970;2023-03-01T02:48:56;-1.40;40.80
2409;DHT22;8463;48.094;7.970;2023-03-01T02:51:45;-1.40;41.60
2409;DHT22;8463;48.094;7.970;2023-03-01T02:54:25;-1.40;41.30
2409;DHT22;8463;48.094;7.970;2023-03-01T02:56:54;-1.70;42.20
2409;DHT22;8463;48.094;7.970;2023-03-01T02:59:22;-1.70;42.70
2409;DHT22;8463;48.094;7.970;2023-03-01T03:01:49;-1.60;44.00
2409;DHT22;8463;48.094;7.970;2023-03-01T03:04:17;-1.60;42.30
2409;DHT22;8463;48.094;7.970;2023-03-01T03:06:44;-1.50;42.30
2409;DHT22;8463;48.094;7.970;2023-03-01T03:09:11;-1.50;42.30
2409;DHT22;8463;48.094;7.970;2023-03-01T03:11:37;-1.50;41.10
2409;DHT22;8463;48.094;7.970;2023-03-01T03:14:05;-1.60;41.70
2409;DHT22;8463;48.094;7.970;2023-03-01T03:16:31;-1.60;42.30
2409;DHT22;8463;48.094;7.970;2023-03-01T03:18:56;-1.50;42.40
2409;DHT22;8463;48.094;7.970;2023-03-01T03:21:31;-1.40;42.40
2409;DHT22;8463;48.094;7.970;2023-03-01T03:23:58;-1.50;42.40
2409;DHT22;8463;48.094;7.970;2023-03-01T03:26:24;-1.50;41.50
2409;DHT22;8463;48.094;7.970;2023-03-01T03:28:50;-1.50;41.10
2409;DHT22;8463;48.094;7.970;2023-03-01T03:31:15;-1.60;41.90
2409;DHT22;8463;48.094;7.970;2023-03-01T03:33:41;-1.60;41.50
2409;DHT22;8463;48.094;7.970;2023-03-01T03:36:07;-1.60;42.30
2409;DHT22;8463;48.094;7.970;2023-03-01T03:38:39;-1.60;42.30
2409;DHT22;8463;48.094;7.970;2023-03-01T03:41:07;-1.50;42.30
2409;DHT22;8463;48.094;7.970;2023-03-01T03:43:37;-1.60;42.30
2409;DHT22;8463;48.094;7.970;2023-03-01T03:46:03;-1.80;42.40
2409;DHT22;8463;48.094;7.970;2023-03-01T03:48:35;-1.80;45.10
2409;DHT22;8463;48.094;7.970;2023-03-01T03:51:01;-1.80;44.60
2409;DHT22;8463;48.094;7.970;2023-03-01T03:53:28;-1.80;44.40
2409;DHT22;8463;48.094;7.970;2023-03-01T03:55:56;-1.80;45.20
2409;DHT22;8463;48.094;7.970;2023-03-01T03:58:24;-1.80;44.40
2409;DHT22;8463;48.094;7.970;2023-03-01T04:00:53;-1.80;44.80
2409;DHT22;8463;48.094;7.970;2023-03-01T04:03:19;-1.80;45.10
2409;DHT22;8463;48.094;7.970;2023-03-01T04:05:46;-1.70;46.00
2409;DHT22;8463;48.094;7.970;2023-03-01T04:08:12;-1.70;45.70
2409;DHT22;8463;48.094;7.970;2023-03-01T04:10:49;-1.70;45.60
2409;DHT22;8463;48.094;7.970;2023-03-01T04:13:17;-1.80;45.60
2409;DHT22;8463;48.094;7.970;2023-03-01T04:15:45;-1.70;46.20
2409;DHT22;8463;48.094;7.970;2023-03-01T04:18:14;-1.70;46.30
2409;DHT22;8463;48.094;7.970;2023-03-01T04:20:40;-1.70;46.20
2409;DHT22;8463;48.094;7.970;2023-03-01T04:23:20;-1.60;45.90
2409;DHT22;8463;48.094;7.970;2023-03-01T04:25:47;-1.60;45.30
2409;DHT22;8463;48.094;7.970;2023-03-01T04:30:57;-1.80;47.50
2409;DHT22;8463;48.094;7.970;2023-03-01T04:33:24;-1.70;48.10
2409;DHT22;8463;48.094;7.970;2023-03-01T04:35:51;-1.80;48.70
2409;DHT22;8463;48.094;7.970;2023-03-01T04:38:20;-1.70;48.50
2409;DHT22;8463;48.094;7.970;2023-03-01T04:40:48;-1.70;48.00
2409;DHT22;8463;48.094;7.970;2023-03-01T04:43:13;-1.60;48.20
2409;DHT22;8463;48.094;7.970;2023-03-01T04:45:43;-1.70;46.90
2409;DHT22;8463;48.094;7.970;2023-03-01T04:48:11;-1.70;47.50
2409;DHT22;8463;48.094;7.970;2023-03-01T04:50:37;-1.80;49.00
2409;DHT22;8463;48.094;7.970;2023-03-01T04:53:02;-1.70;49.40
2409;DHT22;8463;48.094;7.970;2023-03-01T04:55:28;-1.60;49.90
2409;DHT22;8463;48.094;7.970;2023-03-01T04:57:55;-1.60;49.50
2409;DHT22;8463;48.094;7.970;2023-03-01T05:00:21;-1.50;48.20
2409;DHT22;8463;48.094;7.970;2023-03-01T05:02:59;-1.50;48.50
2409;DHT22;8463;48.094;7.970;2023-03-01T05:05:28;-1.50;48.20
2409;DHT22;8463;48.094;7.970;2023-03-01T05:07:59;-1.50;48.90
2409;DHT22;8463;48.094;7.970;2023-03-01T05:10:27;-1.50;49.10
2409;DHT22;8463;48.094;7.970;2023-03-01T05:12:54;-1.40;49.10
2409;DHT22;8463;48.094;7.970;2023-03-01T05:15:23;-1.40;49.10
2409;DHT22;8463;48.094;7.970;2023-03-01T05:17:51;-1.30;48.20
2409;DHT22;8463;48.094;7.970;2023-03-01T05:20:17;-1.30;47.50
2409;DHT22;8463;48.094;7.970;2023-03-01T05:22:43;-1.30;47.40
2409;DHT22;8463;48.094;7.970;2023-03-01T05:25:09;-1.40;47.90
2409;DHT22;8463;48.094;7.970;2023-03-01T05:27:35;-1.40;48.80
2409;DHT22;8463;48.094;7.970;2023-03-01T05:30:02;-1.60;49.90
2409;DHT22;8463;48.094;7.970;2023-03-01T05:32:48;-1.60;50.90
2409;DHT22;8463;48.094;7.970;2023-03-01T05:35:16;-1.40;50.70
2409;DHT22;8463;48.094;7.970;2023-03-01T05:37:46;-1.40;51.10
2409;DHT22;8463;48.094;7.970;2023-03-01T05:40:18;-1.40;51.10
2409;DHT22;8463;48.094;7.970;2023-03-01T05:42:46;-1.30;51.20
2409;DHT22;8463;48.094;7.970;2023-03-01T05:45:12;-1.30;51.20
2409;DHT22;8463;48.094;7.970;2023-03-01T05:47:43;-1.20;50.80
2409;DHT22;8463;48.094;7.970;2023-03-01T05:52:36;-1.10;50.50
2409;DHT22;8463;48.094;7.970;2023-03-01T05:55:02;-1.10;50.10
2409;DHT22;8463;48.094;7.970;2023-03-01T05:57:33;-1.10;49.50
2409;DHT22;8463;48.094;7.970;2023-03-01T05:59:59;-1.20;49.60
2409;DHT22;8463;48.094;7.970;2023-03-01T06:02:24;-1.20;49.50
2409;DHT22;8463;48.094;7.970;2023-03-01T06:04:50;-1.10;50.10
2409;DHT22;8463;48.094;7.970;2023-03-01T06:07:16;-1.20;50.40
2409;DHT22;8463;48.094;7.970;2023-03-01T06:09:41;-1.10;50.40
2409;DHT22;8463;48.094;7.970;2023-03-01T06:12:07;-1.10;50.20
2409;DHT22;8463;48.094;7.970;2023-03-01T06:14:32;-1.20;50.10
2409;DHT22;8463;48.094;7.970;2023-03-01T06:17:00;-1.20;50.20
2409;DHT22;8463;48.094;7.970;2023-03-01T06:19:26;-1.30;50.90
2409;DHT22;8463;48.094;7.970;2023-03-01T06:21:51;-1.20;51.80
2409;DHT22;8463;48.094;7.970;2023-03-01T06:24:17;-1.20;51.20
2409;DHT22;8463;48.094;7.970;2023-03-01T06:26:43;-1.20;51.20
2409;DHT22;8463;48.094;7.970;2023-03-01T06:29:08;-1.20;51.30
2409;DHT22;8463;48.094;7.970;2023-03-01T06:31:34;-1.20;51.30
2409;DHT22;8463;48.094;7.970;2023-03-01T06:34:00;-1.20;52.70
2409;DHT22;8463;48.094;7.970;2023-03-01T06:36:25;-0.50;64.30
2409;DHT22;8463;48.094;7.970;2023-03-01T06:38:51;-0.70;51.80
2409;DHT22;8463;48.094;7.970;2023-03-01T06:41:19;-0.70;50.70
2409;DHT22;8463;48.094;7.970;2023-03-01T06:43:44;-0.80;47.70
2409;DHT22;8463;48.094;7.970;2023-03-01T06:46:10;-1.00;48.90
2409;DHT22;8463;48.094;7.970;2023-03-01T06:48:36;-1.10;48.70
2409;DHT22;8463;48.094;7.970;2023-03-01T06:51:01;-1.20;50.00
2409;DHT22;8463;48.094;7.970;2023-03-01T06:53:28;-1.30;51.20
2409;DHT22;8463;48.094;7.970;2023-03-01T06:55:55;-1.30;51.40
2409;DHT22;8463;48.094;7.970;2023-03-01T06:58:20;-1.30;51.20
2409;DHT22;8463;48.094;7.970;2023-03-01T07:00:46;-1.30;50.80
2409;DHT22;8463;48.094;7.970;2023-03-01T07:03:12;-1.30;51.20
2409;DHT22;8463;48.094;7.970;2023-03-01T07:05:37;-1.30;51.00
2409;DHT22;8463;48.094;7.970;2023-03-01T07:08:03;-1.40;50.60
2409;DHT22;8463;48.094;7.970;2023-03-01T07:10:28;-1.30;50.60
2409;DHT22;8463;48.094;7.970;2023-03-01T07:12:55;-1.30;51.20
2409;DHT22;8463;48.094;7.970;2023-03-01T07:15:21;-1.30;51.20
2409;DHT22;8463;48.094;7.970;2023-03-01T07:17:47;-1.30;51.20
2409;DHT22;8463;48.094;7.970;2023-03-01T07:20:15;-1.30;52.10
2409;DHT22;8463;48.094;7.970;2023-03-01T07:22:43;-1.10;51.30
2409;DHT22;8463;48.094;7.970;2023-03-01T07:25:10;-1.00;50.00
2409;DHT22;8463;48.094;7.970;2023-03-01T07:27:36;-1.10;49.50
2409;DHT22;8463;48.094;7.970;2023-03-01T07:30:02;-1.10;50.40
2409;DHT22;8463;48.094;7.970;2023-03-01T07:32:28;-1.00;51.20
2409;DHT22;8463;48.094;7.970;2023-03-01T07:34:53;-1.10;51.30
2409;DHT22;8463;48.094;7.970;2023-03-01T07:37:19;-1.10;51.30
2409;DHT22;8463;48.094;7.970;2023-03-01T07:39:45;-1.00;50.70
2409;DHT22;8463;48.094;7.970;2023-03-01T07:42:10;-1.00;51.50
2409;DHT22;8463;48.094;7.970;2023-03-01T07:44:36;-0.90;51.60
2409;DHT22;8463;48.094;7.970;2023-03-01T07:47:04;-0.80;51.60
2409;DHT22;8463;48.094;7.970;2023-03-01T07:49:30;-0.70;51.70
2409;DHT22;8463;48.094;7.970;2023-03-01T07:51:55;-0.60;51.80
2409;DHT22;8463;48.094;7.970;2023-03-01T07:54:21;-0.60;50.10
2409;DHT22;8463;48.094;7.970;2023-03-01T07:56:47;-0.60;50.50
2409;DHT22;8463;48.094;7.970;2023-03-01T07:59:13;-0.50;49.70
2409;DHT22;8463;48.094;7.970;2023-03-01T08:01:38;-0.40;49.50
2409;DHT22;8463;48.094;7.970;2023-03-01T08:04:04;-0.40;48.80
2409;DHT22;8463;48.094;7.970;2023-03-01T08:06:34;-0.30;49.40
2409;DHT22;8463;48.094;7.970;2023-03-01T08:09:00;-0.20;49.80
2409;DHT22;8463;48.094;7.970;2023-03-01T08:11:25;-0.20;48.60
2409;DHT22;8463;48.094;7.970;2023-03-01T08:13:53;-0.20;48.90
2409;DHT22;8463;48.094;7.970;2023-03-01T08:16:19;-0.10;48.70
2409;DHT22;8463;48.094;7.970;2023-03-01T08:18:45;0.00;48.50
2409;DHT22;8463;48.094;7.970;2023-03-01T08:21:13;-0.10;46.70
2409;DHT22;8463;48.094;7.970;2023-03-01T08:23:40;-0.20;48.90
2409;DHT22;8463;48.094;7.970;2023-03-01T08:26:15;-0.10;48.40
2409;DHT22;8463;48.094;7.970;2023-03-01T08:28:41;-0.10;48.50
2409;DHT22;8463;48.094;7.970;2023-03-01T08:31:25;0.00;47.00
2409;DHT22;8463;48.094;7.970;2023-03-01T08:33:54;0.00;48.00
2409;DHT22;8463;48.094;7.970;2023-03-01T08:36:24;0.10;48.10
2409;DHT22;8463;48.094;7.970;2023-03-01T08:38:51;0.20;48.20
2409;DHT22;8463;48.094;7.970;2023-03-01T08:41:17;0.30;48.30
2409;DHT22;8463;48.094;7.970;2023-03-01T08:43:43;0.40;47.00
2409;DHT22;8463;48.094;7.970;2023-03-01T08:46:08;0.30;46.70
2409;DHT22;8463;48.094;7.970;2023-03-01T08:48:34;0.30;47.50
2409;DHT22;8463;48.094;7.970;2023-03-01T08:51:11;0.30;48.80
2409;DHT22;8463;48.094;7.970;2023-03-01T08:53:38;0.30;49.90
2409;DHT22;8463;48.094;7.970;2023-03-01T08:56:04;0.20;49.60
2409;DHT22;8463;48.094;7.970;2023-03-01T08:58:30;0.20;49.90
2409;DHT22;8463;48.094;7.970;2023-03-01T09:00:58;0.30;48.20
2409;DHT22;8463;48.094;7.970;2023-03-01T09:03:24;0.40;48.30
2409;DHT22;8463;48.094;7.970;2023-03-01T09:05:51;0.50;47.80
2409;DHT22;8463;48.094;7.970;2023-03-01T09:08:18;0.60;48.60
2409;DHT22;8463;48.094;7.970;2023-03-01T09:10:44;0.80;46.70
2409;DHT22;8463;48.094;7.970;2023-03-01T09:13:10;0.80;44.70
2409;DHT22;8463;48.094;7.970;2023-03-01T09:15:39;0.70;46.40
2409;DHT22;8463;48.094;7.970;2023-03-01T09:18:05;0.70;46.90
2409;DHT22;8463;48.094;7.970;2023-03-01T09:20:31;0.90;47.90
2409;DHT22;8463;48.094;7.970;2023-03-01T09:22:57;0.80;47.60
2409;DHT22;8463;48.094;7.970;2023-03-01T09:25:24;1.00;47.70
2409;DHT22;8463;48.094;7.970;2023-03-01T09:27:53;1.00;45.30
2409;DHT22;8463;48.094;7.970;2023-03-01T09:30:19;1.10;45.10
2409;DHT22;8463;48.094;7.970;2023-03-01T09:32:48;1.20;45.20
2409;DHT22;8463;48.094;7.970;2023-03-01T09:35:13;1.30;44.90
2409;DHT22;8463;48.094;7.970;2023-03-01T09:37:39;1.20;44.80
2409;DHT22;8463;48.094;7.970;2023-03-01T09:40:16;1.20;44.80
2409;DHT22;8463;48.094;7.970;2023-03-01T09:43:07;1.30;45.20
2409;DHT22;8463;48.094;7.970;2023-03-01T09:45:40;1.30;44.90
2409;DHT22;8463;48.094;7.970;2023-03-01T09:48:15;1.30;46.60
2409;DHT22;8463;48.094;7.970;2023-03-01T09:50:42;1.50;45.10
2409;DHT22;8463;48.094;7.970;2023-03-01T09:53:21;1.60;44.00
2409;DHT22;8463;48.094;7.970;2023-03-01T09:56:28;1.70;43.20
2409;DHT22;8463;48.094;7.970;2023-03-01T10:04:45;1.90;43.20
2409;DHT22;8463;48.094;7.970;2023-03-01T10:09:43;2.00;42.50
2409;DHT22;8463;48.094;7.970;2023-03-01T10:12:16;2.10;41.90
2409;DHT22;8463;48.094;7.970;2023-03-01T10:17:47;2.10;40.20
2409;DHT22;8463;48.094;7.970;2023-03-01T10:22:45;2.30;38.10
2409;DHT22;8463;48.094;7.970;2023-03-01T10:25:20;2.50;35.50
2409;DHT22;8463;48.094;7.970;2023-03-01T10:27:54;2.70;35.00
2409;DHT22;8463;48.094;7.970;2023-03-01T10:30:39;2.90;29.70
2409;DHT22;8463;48.094;7.970;2023-03-01T10:35:49;3.30;26.90
2409;DHT22;8463;48.094;7.970;2023-03-01T10:38:16;3.50;25.60
2409;DHT22;8463;48.094;7.970;2023-03-01T10:43:30;3.70;24.60
2409;DHT22;8463;48.094;7.970;2023-03-01T10:45:58;3.80;23.40
2409;DHT22;8463;48.094;7.970;2023-03-01T10:48:25;3.90;23.20
2409;DHT22;8463;48.094;7.970;2023-03-01T10:53:42;4.50;21.70
2409;DHT22;8463;48.094;7.970;2023-03-01T10:56:10;4.60;19.70
2409;DHT22;8463;48.094;7.970;2023-03-01T11:01:27;4.50;18.80
2409;DHT22;8463;48.094;7.970;2023-03-01T11:06:32;4.40;19.00
2409;DHT22;8463;48.094;7.970;2023-03-01T11:09:22;4.40;19.00
2409;DHT22;8463;48.094;7.970;2023-03-01T11:11:53;4.40;19.60
2409;DHT22;8463;48.094;7.970;2023-03-01T11:14:27;4.40;19.40
2409;DHT22;8463;48.094;7.970;2023-03-01T11:17:04;4.40;18.50
2409;DHT22;8463;48.094;7.970;2023-03-01T11:19:31;4.40;18.90
2409;DHT22;8463;48.094;7.970;2023-03-01T11:22:03;4.70;19.60
2409;DHT22;8463;48.094;7.970;2023-03-01T11:24:36;5.00;18.20
2409;DHT22;8463;48.094;7.970;2023-03-01T11:27:04;5.20;17.50
2409;DHT22;8463;48.094;7.970;2023-03-01T11:29:46;5.50;16.60
2409;DHT22;8463;48.094;7.970;2023-03-01T11:32:16;5.80;14.50
2409;DHT22;8463;48.094;7.970;2023-03-01T11:35:20;6.00;13.50
2409;DHT22;8463;48.094;7.970;2023-03-01T11:45:24;7.20;7.30
2409;DHT22;8463;48.094;7.970;2023-03-01T11:50:46;8.00;3.40
2409;DHT22;8463;48.094;7.970;2023-03-01T12:07:41;8.50;1.00
2409;DHT22;8463;48.094;7.970;2023-03-01T12:10:27;8.80;1.00
2409;DHT22;8463;48.094;7.970;2023-03-01T12:13:23;9.10;1.00
2409;DHT22;8463;48.094;7.970;2023-03-01T12:16:15;9.20;1.00
2409;DHT22;8463;48.094;7.970;2023-03-01T12:49:09;9.30;1.00
2409;DHT22;8463;48.094;7.970;2023-03-01T12:51:38;9.40;1.00
2409;DHT22;8463;48.094;7.970;2023-03-01T12:54:32;9.60;1.00
2409;DHT22;8463;48.094;7.970;2023-03-01T12:57:07;9.30;1.00
2409;DHT22;8463;48.094;7.970;2023-03-01T13:10:46;9.60;1.00
2409;DHT22;8463;48.094;7.970;2023-03-01T13:13:14;9.70;1.00
2409;DHT22;8463;48.094;7.970;2023-03-01T13:15:43;10.00;1.00
2409;DHT22;8463;48.094;7.970;2023-03-01T13:23:23;9.80;1.00
2409;DHT22;8463;48.094;7.970;2023-03-01T13:26:16;10.30;1.00
2409;DHT22;8463;48.094;7.970;2023-03-01T13:33:47;11.10;1.00
2409;DHT22;8463;48.094;7.970;2023-03-01T13:49:56;11.50;1.00
2409;DHT22;8463;48.094;7.970;2023-03-01T13:52:47;10.90;1.00
2409;DHT22;8463;48.094;7.970;2023-03-01T13:57:39;10.80;1.00
2409;DHT22;8463;48.094;7.970;2023-03-01T14:00:23;11.10;1.00
2409;DHT22;8463;48.094;7.970;2023-03-01T14:03:03;11.10;1.00
2409;DHT22;8463;48.094;7.970;2023-03-01T14:05:30;11.20;1.00
2409;DHT22;8463;48.094;7.970;2023-03-01T14:07:56;11.20;1.00
2409;DHT22;8463;48.094;7.970;2023-03-01T14:10:27;11.10;1.00
2409;DHT22;8463;48.094;7.970;2023-03-01T14:16:24;10.90;1.00
2409;DHT22;8463;48.094;7.970;2023-03-01T14:19:13;10.80;1.00
2409;DHT22;8463;48.094;7.970;2023-03-01T14:21:39;10.70;1.00
2409;DHT22;8463;48.094;7.970;2023-03-01T14:24:05;10.80;1.00
2409;DHT22;8463;48.094;7.970;2023-03-01T14:26:32;11.00;1.00
2409;DHT22;8463;48.094;7.970;2023-03-01T14:29:00;11.20;1.00
2409;DHT22;8463;48.094;7.970;2023-03-01T14:31:37;11.30;1.00
2409;DHT22;8463;48.094;7.970;2023-03-01T14:34:03;11.50;1.00
2409;DHT22;8463;48.094;7.970;2023-03-01T14:36:33;11.60;1.00
2409;DHT22;8463;48.094;7.970;2023-03-01T14:39:00;11.80;1.00
2409;DHT22;8463;48.094;7.970;2023-03-01T14:41:34;11.90;1.00
2409;DHT22;8463;48.094;7.970;2023-03-01T14:44:07;11.80;1.00
2409;DHT22;8463;48.094;7.970;2023-03-01T14:46:43;11.90;1.00
2409;DHT22;8463;48.094;7.970;2023-03-01T14:49:14;11.90;1.00
2409;DHT22;8463;48.094;7.970;2023-03-01T14:51:42;11.90;1.00
2409;DHT22;8463;48.094;7.970;2023-03-01T14:56:53;11.30;1.00
2409;DHT22;8463;48.094;7.970;2023-03-01T14:59:24;11.00;1.00
2409;DHT22;8463;48.094;7.970;2023-03-01T15:01:54;11.00;1.00
2409;DHT22;8463;48.094;7.970;2023-03-01T15:04:22;10.70;1.00
2409;DHT22;8463;48.094;7.970;2023-03-01T15:06:51;10.70;1.00
2409;DHT22;8463;48.094;7.970;2023-03-01T15:09:18;10.70;1.00
2409;DHT22;8463;48.094;7.970;2023-03-01T15:11:44;10.70;1.00
2409;DHT22;8463;48.094;7.970;2023-03-01T15:14:38;10.60;1.00
2409;DHT22;8463;48.094;7.970;2023-03-01T15:19:49;9.70;1.00
2409;DHT22;8463;48.094;7.970;2023-03-01T15:22:15;9.70;1.00
2409;DHT22;8463;48.094;7.970;2023-03-01T15:24:47;9.60;1.00
2409;DHT22;8463;48.094;7.970;2023-03-01T15:27:18;9.40;1.00
2409;DHT22;8463;48.094;7.970;2023-03-01T15:30:17;9.40;1.00
2409;DHT22;8463;48.094;7.970;2023-03-01T15:32:43;9.30;1.00
2409;DHT22;8463;48.094;7.970;2023-03-01T15:35:44;9.10;1.00
2409;DHT22;8463;48.094;7.970;2023-03-01T15:41:03;8.90;1.00
2409;DHT22;8463;48.094;7.970;2023-03-01T15:43:46;9.00;1.00
2409;DHT22;8463;48.094;7.970;2023-03-01T15:46:33;9.00;1.00
2409;DHT22;8463;48.094;7.970;2023-03-01T15:49:04;9.00;1.00
2409;DHT22;8463;48.094;7.970;2023-03-01T15:51:33;8.90;1.00
2409;DHT22;8463;48.094;7.970;2023-03-01T15:54:14;8.90;1.00
2409;DHT22;8463;48.094;7.970;2023-03-01T15:56:42;8.80;1.00
2409;DHT22;8463;48.094;7.970;2023-03-01T15:59:11;8.70;1.00
2409;DHT22;8463;48.094;7.970;2023-03-01T16:01:44;8.70;1.00
2409;DHT22;8463;48.094;7.970;2023-03-01T16:04:11;8.60;1.00
2409;DHT22;8463;48.094;7.970;2023-03-01T16:06:41;8.60;1.00
2409;DHT22;8463;48.094;7.970;2023-03-01T16:09:07;8.60;1.00
2409;DHT22;8463;48.094;7.970;2023-03-01T16:11:34;8.50;1.00
2409;DHT22;8463;48.094;7.970;2023-03-01T16:14:02;8.50;1.00
2409;DHT22;8463;48.094;7.970;2023-03-01T16:16:28;8.50;1.00
2409;DHT22;8463;48.094;7.970;2023-03-01T16:18:53;8.40;1.00
2409;DHT22;8463;48.094;7.970;2023-03-01T16:21:22;8.40;1.00
2409;DHT22;8463;48.094;7.970;2023-03-01T16:23:49;8.40;1.00
2409;DHT22;8463;48.094;7.970;2023-03-01T16:26:14;8.30;1.00
2409;DHT22;8463;48.094;7.970;2023-03-01T16:28:42;8.30;1.00
2409;DHT22;8463;48.094;7.970;2023-03-01T16:31:09;8.20;1.00
2409;DHT22;8463;48.094;7.970;2023-03-01T16:33:35;8.20;1.00
2409;DHT22;8463;48.094;7.970;2023-03-01T16:36:07;8.20;1.00
2409;DHT22;8463;48.094;7.970;2023-03-01T16:38:33;8.20;1.00
2409;DHT22;8463;48.094;7.970;2023-03-01T16:41:00;8.20;1.00
2409;DHT22;8463;48.094;7.970;2023-03-01T16:43:25;8.20;1.00
2409;DHT22;8463;48.094;7.970;2023-03-01T16:45:51;8.20;1.00
2409;DHT22;8463;48.094;7.970;2023-03-01T16:48:17;8.20;1.00
2409;DHT22;8463;48.094;7.970;2023-03-01T16:50:43;8.20;1.00
2409;DHT22;8463;48.094;7.970;2023-03-01T16:53:09;7.60;7.90
2409;DHT22;8463;48.094;7.970;2023-03-01T16:55:37;7.40;8.70
2409;DHT22;8463;48.094;7.970;2023-03-01T16:58:03;7.20;10.70
2409;DHT22;8463;48.094;7.970;2023-03-01T17:00:29;6.90;12.50
2409;DHT22;8463;48.094;7.970;2023-03-01T17:02:55;6.90;13.30
2409;DHT22;8463;48.094;7.970;2023-03-01T17:05:23;6.70;15.20
2409;DHT22;8463;48.094;7.970;2023-03-01T17:07:50;6.50;15.90
2409;DHT22;8463;48.094;7.970;2023-03-01T17:10:16;6.50;16.50
2409;DHT22;8463;48.094;7.970;2023-03-01T17:12:41;6.60;16.60
2409;DHT22;8463;48.094;7.970;2023-03-01T17:15:07;6.60;16.60
2409;DHT22;8463;48.094;7.970;2023-03-01T17:17:33;6.30;16.10
2409;DHT22;8463;48.094;7.970;2023-03-01T17:20:00;6.30;16.90
2409;DHT22;8463;48.094;7.970;2023-03-01T17:22:25;6.10;17.70
2409;DHT22;8463;48.094;7.970;2023-03-01T17:24:51;6.10;17.70
2409;DHT22;8463;48.094;7.970;2023-03-01T17:27:17;5.90;17.50
2409;DHT22;8463;48.094;7.970;2023-03-01T17:29:50;6.00;17.90
2409;DHT22;8463;48.094;7.970;2023-03-01T17:32:19;5.80;18.60
2409;DHT22;8463;48.094;7.970;2023-03-01T17:34:47;5.70;19.10
2409;DHT22;8463;48.094;7.970;2023-03-01T17:37:12;5.90;18.10
2409;DHT22;8463;48.094;7.970;2023-03-01T17:39:38;5.80;18.90
2409;DHT22;8463;48.094;7.970;2023-03-01T17:42:04;5.60;19.80
2409;DHT22;8463;48.094;7.970;2023-03-01T17:44:31;5.60;20.40
2409;DHT22;8463;48.094;7.970;2023-03-01T17:46:58;5.50;20.90
2409;DHT22;8463;48.094;7.970;2023-03-01T17:49:23;5.60;19.40
2409;DHT22;8463;48.094;7.970;2023-03-01T17:51:49;5.70;19.30
2409;DHT22;8463;48.094;7.970;2023-03-01T17:54:15;5.80;19.30
2409;DHT22;8463;48.094;7.970;2023-03-01T17:56:40;5.60;20.20
2409;DHT22;8463;48.094;7.970;2023-03-01T17:59:07;5.60;21.00
2409;DHT22;8463;48.094;7.970;2023-03-01T18:01:33;5.60;21.00
2409;DHT22;8463;48.094;7.970;2023-03-01T18:04:00;5.60;20.50
2409;DHT22;8463;48.094;7.970;2023-03-01T18:06:27;5.60;20.80
2409;DHT22;8463;48.094;7.970;2023-03-01T18:08:53;5.50;21.00
2409;DHT22;8463;48.094;7.970;2023-03-01T18:11:23;5.30;21.00
2409;DHT22;8463;48.094;7.970;2023-03-01T18:13:50;5.20;22.30
2409;DHT22;8463;48.094;7.970;2023-03-01T18:16:17;5.30;23.10
2409;DHT22;8463;48.094;7.970;2023-03-01T18:18:44;4.70;24.20
2409;DHT22;8463;48.094;7.970;2023-03-01T18:21:10;4.50;25.60
2409;DHT22;8463;48.094;7.970;2023-03-01T18:23:36;4.50;26.20
2409;DHT22;8463;48.094;7.970;2023-03-01T18:26:08;4.50;25.70
2409;DHT22;8463;48.094;7.970;2023-03-01T18:28:34;4.50;26.80
2409;DHT22;8463;48.094;7.970;2023-03-01T18:31:06;4.50;26.20
2409;DHT22;8463;48.094;7.970;2023-03-01T18:33:35;4.60;26.50
2409;DHT22;8463;48.094;7.970;2023-03-01T18:36:01;4.70;26.20
2409;DHT22;8463;48.094;7.970;2023-03-01T18:38:28;4.70;26.30
2409;DHT22;8463;48.094;7.970;2023-03-01T18:40:54;4.80;26.10
2409;DHT22;8463;48.094;7.970;2023-03-01T18:43:21;4.80;26.10